createdAt,value
2022-09-04T00:01:09.887Z,80.49
2022-09-04T00:04:32.614Z,80.60
2022-09-04T00:08:11.666Z,81.12
2022-09-04T00:11:46.436Z,82.21
2022-09-04T00:15:02.542Z,82.00
2022-09-04T00:18:17.361Z,81.58
2022-09-04T00:21:39.880Z,82.13
2022-09-04T00:24:48.667Z,82.27
2022-09-04T00:28:01.463Z,82.99
2022-09-04T00:31:25.959Z,83.41
2022-09-04T00:34:36.857Z,84.24
2022-09-04T00:37:45.836Z,83.76
2022-09-04T00:41:01.688Z,84.09
2022-09-04T00:44:25.497Z,84.69
2022-09-04T00:47:39.091Z,84.90
2022-09-04T00:51:15.102Z,85.41
2022-09-04T00:54:52.537Z,85.45
2022-09-04T00:58:08.410Z,85.21
2022-09-04T01:01:19.678Z,84.58
2022-09-04T01:04:41.511Z,84.92
2022-09-04T01:07:56.606Z,85.20
2022-09-04T01:11:14.529Z,83.90
2022-09-04T01:14:34.377Z,81.32
2022-09-04T01:17:55.439Z,80.71
2022-09-04T01:21:20.491Z,80.01
2022-09-04T01:24:54.074Z,80.27
2022-09-04T01:28:04.800Z,79.69
2022-09-04T01:31:36.558Z,79.59
2022-09-04T01:35:02.318Z,79.30
2022-09-04T01:38:31.043Z,79.73
2022-09-04T01:41:54.379Z,79.47
2022-09-04T01:44:57.179Z,80.00
2022-09-04T01:48:04.066Z,78.88
2022-09-04T01:51:17.859Z,79.15
2022-09-04T01:54:49.174Z,78.71
2022-09-04T01:57:57.559Z,79.33
2022-09-04T02:01:21.301Z,78.89
2022-09-04T02:04:32.904Z,78.42
2022-09-04T02:07:56.765Z,78.80
2022-09-04T02:11:27.866Z,79.21
2022-09-04T02:14:46.621Z,79.29
2022-09-04T02:18:11.646Z,79.11
2022-09-04T02:21:45.042Z,79.71
2022-09-04T02:25:14.522Z,79.16
2022-09-04T02:28:40.799Z,79.00
2022-09-04T02:32:01.328Z,80.08
2022-09-04T02:35:15.926Z,78.91
2022-09-04T02:38:25.740Z,79.12
2022-09-04T02:41:37.270Z,79.56
2022-09-04T02:45:06.903Z,79.59
2022-09-04T02:48:21.668Z,80.39
2022-09-04T02:51:54.495Z,79.51
2022-09-04T02:55:15.559Z,79.95
2022-09-04T02:58:25.938Z,79.70
2022-09-04T03:01:59.234Z,80.02
2022-09-04T03:05:09.076Z,79.96
2022-09-04T03:08:20.974Z,80.62
2022-09-04T03:11:35.442Z,79.43
2022-09-04T03:14:54.284Z,79.63
2022-09-04T03:18:26.431Z,79.67
2022-09-04T03:21:46.331Z,78.95
2022-09-04T03:25:39.499Z,78.42
2022-09-04T03:29:09.553Z,77.45
2022-09-04T03:32:27.147Z,77.45
2022-09-04T03:35:50.564Z,78.15
2022-09-04T03:39:18.363Z,78.51
2022-09-04T03:42:36.993Z,79.10
2022-09-04T03:46:22.778Z,79.14
2022-09-04T03:49:50.104Z,80.35
2022-09-04T03:53:19.143Z,80.92
2022-09-04T03:56:30.134Z,79.94
2022-09-04T04:00:11.113Z,80.84
2022-09-04T04:03:28.986Z,81.13
2022-09-04T04:06:47.751Z,80.32
2022-09-04T04:10:10.076Z,78.83
2022-09-04T04:13:33.959Z,79.33
2022-09-04T04:16:55.841Z,79.90
2022-09-04T04:20:24.577Z,80.47
2022-09-04T04:23:41.675Z,80.89
2022-09-04T04:26:57.659Z,81.58
2022-09-04T04:30:15.009Z,81.22
2022-09-04T04:33:47.883Z,80.01
2022-09-04T04:37:13.425Z,81.04
2022-09-04T04:40:21.537Z,82.30
2022-09-04T04:43:26.686Z,82.48
2022-09-04T04:47:15.621Z,81.58
2022-09-04T04:50:44.068Z,81.65
2022-09-04T04:53:55.346Z,81.15
2022-09-04T04:57:09.096Z,79.90
2022-09-04T05:00:18.628Z,80.75
2022-09-04T05:03:32.551Z,80.72
2022-09-04T05:07:09.089Z,80.25
2022-09-04T05:10:19.991Z,80.25
2022-09-04T05:13:41.626Z,79.95
2022-09-04T05:16:56.262Z,80.40
2022-09-04T05:20:28.268Z,80.26
2022-09-04T05:23:41.574Z,79.83
2022-09-04T05:26:53.558Z,78.84
2022-09-04T05:30:28.259Z,78.91
2022-09-04T05:34:09.890Z,78.26
2022-09-04T05:37:21.048Z,78.41
2022-09-04T05:40:32.838Z,78.00
2022-09-04T05:43:43.838Z,78.01
2022-09-04T05:47:13.143Z,78.07
2022-09-04T05:50:37.635Z,78.24
2022-09-04T05:54:02.475Z,78.72
2022-09-04T05:57:13.674Z,77.29
2022-09-04T06:00:19.012Z,77.96
2022-09-04T06:03:27.387Z,77.90
2022-09-04T06:06:54.387Z,78.17
2022-09-04T06:10:03.063Z,78.05
2022-09-04T06:13:40.609Z,77.12
2022-09-04T06:17:09.120Z,77.91
2022-09-04T06:20:23.357Z,77.98
2022-09-04T06:23:52.977Z,78.56
2022-09-04T06:27:22.829Z,79.02
2022-09-04T06:30:29.332Z,79.18
2022-09-04T06:34:05.407Z,78.56
2022-09-04T06:37:28.002Z,78.53
2022-09-04T06:40:48.661Z,77.73
2022-09-04T06:44:05.474Z,77.56
2022-09-04T06:47:33.034Z,77.24
2022-09-04T06:50:39.529Z,77.17
2022-09-04T06:53:50.534Z,76.78
2022-09-04T06:56:56.040Z,76.33
2022-09-04T07:00:11.803Z,77.65
2022-09-04T07:03:23.464Z,77.69
2022-09-04T07:06:57.789Z,77.35
2022-09-04T07:10:10.624Z,77.41
2022-09-04T07:13:28.044Z,77.46
2022-09-04T07:16:50.819Z,75.36
2022-09-04T07:20:34.566Z,75.23
2022-09-04T07:23:55.720Z,75.34
2022-09-04T07:27:15.920Z,74.60
2022-09-04T07:30:20.040Z,74.53
2022-09-04T07:34:00.266Z,73.68
2022-09-04T07:37:25.030Z,73.91
2022-09-04T07:40:42.449Z,72.95
2022-09-04T07:43:55.306Z,71.14
2022-09-04T07:47:18.036Z,72.75
2022-09-04T07:50:26.017Z,72.71
2022-09-04T07:53:48.303Z,72.71
2022-09-04T07:57:04.095Z,71.34
2022-09-04T08:00:15.104Z,71.78
2022-09-04T08:03:38.335Z,72.54
2022-09-04T08:07:11.296Z,72.03
2022-09-04T08:10:19.581Z,71.92
2022-09-04T08:13:35.384Z,71.38
2022-09-04T08:17:03.162Z,71.05
2022-09-04T08:20:18.892Z,72.19
2022-09-04T08:23:49.690Z,70.48
2022-09-04T08:27:29.093Z,70.70
2022-09-04T08:30:47.444Z,70.22
2022-09-04T08:34:32.529Z,69.95
2022-09-04T08:37:37.991Z,69.26
2022-09-04T08:41:16.345Z,68.88
2022-09-04T08:44:56.508Z,69.03
2022-09-04T08:48:32.274Z,68.74
2022-09-04T08:52:09.886Z,68.44
2022-09-04T08:55:14.926Z,69.67
2022-09-04T08:58:57.303Z,70.02
2022-09-04T09:02:17.478Z,69.66
2022-09-04T09:05:45.652Z,68.03
2022-09-04T09:09:24.931Z,69.41
2022-09-04T09:12:50.607Z,69.06
2022-09-04T09:16:20.578Z,68.38
2022-09-04T09:20:10.417Z,67.21
2022-09-04T09:23:38.475Z,66.42
2022-09-04T09:27:08.083Z,66.98
2022-09-04T09:30:19.515Z,67.22
2022-09-04T09:33:59.502Z,66.23
2022-09-04T09:37:22.579Z,66.52
2022-09-04T09:41:03.278Z,65.52
2022-09-04T09:44:41.628Z,66.44
2022-09-04T09:47:59.024Z,66.39
2022-09-04T09:51:25.878Z,65.79
2022-09-04T09:54:59.288Z,65.45
2022-09-04T09:58:10.629Z,66.32
2022-09-04T10:01:29.980Z,66.26
2022-09-04T10:05:08.780Z,65.97
2022-09-04T10:08:10.912Z,64.78
2022-09-04T10:11:16.336Z,63.47
2022-09-04T10:14:42.364Z,64.70
2022-09-04T10:18:09.184Z,64.37
2022-09-04T10:21:35.925Z,65.13
2022-09-04T10:24:45.909Z,65.94
2022-09-04T10:28:09.351Z,66.34
2022-09-04T10:31:35.075Z,66.56
2022-09-04T10:34:54.384Z,66.96
2022-09-04T10:38:06.172Z,67.11
2022-09-04T10:41:20.210Z,67.05
2022-09-04T10:44:50.672Z,66.91
2022-09-04T10:48:30.985Z,67.50
2022-09-04T10:51:39.489Z,67.71
2022-09-04T10:54:45.077Z,68.16
2022-09-04T10:58:10.613Z,68.96
2022-09-04T11:01:32.258Z,68.66
2022-09-04T11:04:59.964Z,69.42
2022-09-04T11:08:06.884Z,70.15
2022-09-04T11:11:41.190Z,70.86
2022-09-04T11:15:05.286Z,71.17
2022-09-04T11:18:25.126Z,70.70
2022-09-04T11:22:02.355Z,70.57
2022-09-04T11:25:19.075Z,69.63
2022-09-04T11:28:40.277Z,68.93
2022-09-04T11:31:58.049Z,67.92
2022-09-04T11:35:36.256Z,67.32
2022-09-04T11:39:05.116Z,66.13
2022-09-04T11:42:46.796Z,65.43
2022-09-04T11:46:14.130Z,65.30
2022-09-04T11:49:38.900Z,63.71
2022-09-04T11:53:11.372Z,64.43
2022-09-04T11:56:29.795Z,63.72
2022-09-04T11:59:56.177Z,62.87
2022-09-04T12:03:04.226Z,62.38
2022-09-04T12:06:34.994Z,62.14
2022-09-04T12:09:39.842Z,61.17
2022-09-04T12:13:00.466Z,61.01
2022-09-04T12:16:42.326Z,61.11
2022-09-04T12:20:08.075Z,60.95
2022-09-04T12:23:28.937Z,60.86
2022-09-04T12:26:59.981Z,61.77
2022-09-04T12:30:07.952Z,61.35
2022-09-04T12:33:29.729Z,60.67
2022-09-04T12:36:53.250Z,60.06
2022-09-04T12:40:14.227Z,59.60
2022-09-04T12:43:34.947Z,59.51
2022-09-04T12:47:14.943Z,58.61
2022-09-04T12:50:44.294Z,57.96
2022-09-04T12:54:09.094Z,58.20
2022-09-04T12:57:16.576Z,57.28
2022-09-04T13:00:19.075Z,57.65
2022-09-04T13:03:30.038Z,56.39
2022-09-04T13:06:53.461Z,54.60
2022-09-04T13:10:32.629Z,55.08
2022-09-04T13:13:44.656Z,53.58
2022-09-04T13:16:58.766Z,53.06
2022-09-04T13:20:23.010Z,53.05
2022-09-04T13:23:46.243Z,54.72
2022-09-04T13:27:04.617Z,54.26
2022-09-04T13:30:11.814Z,53.66
2022-09-04T13:33:39.655Z,53.43
2022-09-04T13:37:12.884Z,52.05
2022-09-04T13:40:41.165Z,51.13
2022-09-04T13:44:05.544Z,51.07
2022-09-04T13:47:14.597Z,51.63
2022-09-04T13:50:26.257Z,51.92
2022-09-04T13:53:35.942Z,52.92
2022-09-04T13:56:58.604Z,51.43
2022-09-04T14:00:10.966Z,52.36
2022-09-04T14:03:39.732Z,51.67
2022-09-04T14:06:42.760Z,52.73
2022-09-04T14:09:49.868Z,52.57
2022-09-04T14:13:25.626Z,50.80
2022-09-04T14:16:29.970Z,50.51
2022-09-04T14:19:46.329Z,50.62
2022-09-04T14:23:05.000Z,49.86
2022-09-04T14:26:24.501Z,49.79
2022-09-04T14:29:45.935Z,49.95
2022-09-04T14:33:07.576Z,50.17
2022-09-04T14:36:24.639Z,50.57
2022-09-04T14:39:35.562Z,49.93
2022-09-04T14:42:52.073Z,49.97
2022-09-04T14:46:02.548Z,50.33
2022-09-04T14:49:08.783Z,50.09
2022-09-04T14:52:23.802Z,50.81
2022-09-04T14:55:31.066Z,50.96
2022-09-04T14:58:41.911Z,51.26
2022-09-04T15:02:08.842Z,50.66
2022-09-04T15:05:45.526Z,51.53
2022-09-04T15:08:50.601Z,51.62
2022-09-04T15:12:20.872Z,52.08
2022-09-04T15:15:32.183Z,51.95
2022-09-04T15:18:39.021Z,53.25
2022-09-04T15:21:56.518Z,51.58
2022-09-04T15:25:08.991Z,52.41
2022-09-04T15:28:38.370Z,52.36
2022-09-04T15:31:42.941Z,52.90
2022-09-04T15:34:45.571Z,53.36
2022-09-04T15:38:05.306Z,52.04
2022-09-04T15:41:21.521Z,52.11
2022-09-04T15:44:31.811Z,52.91
2022-09-04T15:47:59.197Z,52.28
2022-09-04T15:51:14.494Z,52.20
2022-09-04T15:54:30.446Z,52.97
2022-09-04T15:57:48.341Z,51.44
2022-09-04T16:01:40.119Z,52.46
2022-09-04T16:04:47.670Z,53.04
2022-09-04T16:07:55.363Z,52.81
2022-09-04T16:11:03.633Z,52.57
2022-09-04T16:14:17.350Z,52.93
2022-09-04T16:17:25.301Z,54.11
2022-09-04T16:20:46.812Z,54.28
2022-09-04T16:23:50.946Z,54.06
2022-09-04T16:26:54.644Z,54.72
2022-09-04T16:30:04.966Z,54.62
2022-09-04T16:33:27.665Z,55.34
2022-09-04T16:36:40.708Z,55.67
2022-09-04T16:39:59.097Z,56.69
2022-09-04T16:43:41.523Z,56.61
2022-09-04T16:47:15.026Z,56.20
2022-09-04T16:50:29.031Z,57.06
2022-09-04T16:53:41.462Z,57.55
2022-09-04T16:57:12.465Z,56.68
2022-09-04T17:00:17.644Z,56.19
2022-09-04T17:03:24.040Z,55.70
2022-09-04T17:06:35.017Z,55.61
2022-09-04T17:10:01.833Z,55.88
2022-09-04T17:13:27.995Z,55.49
2022-09-04T17:16:48.138Z,56.10
2022-09-04T17:20:09.261Z,56.41
2022-09-04T17:29:03.084Z,57.21
2022-09-04T17:29:08.799Z,57.77
2022-09-04T17:30:53.060Z,58.84
2022-09-04T17:40:08.926Z,58.82
2022-09-04T17:40:54.605Z,59.61
2022-09-04T17:41:36.714Z,59.93
2022-09-04T17:45:25.368Z,60.38
2022-09-04T17:48:31.415Z,60.95
2022-09-04T17:51:34.802Z,61.51
2022-09-04T17:54:49.153Z,61.91
2022-09-04T17:57:55.764Z,62.22
2022-09-04T18:01:16.977Z,62.72
2022-09-04T18:04:38.868Z,63.24
2022-09-04T18:08:09.212Z,63.39
2022-09-04T18:11:17.907Z,63.97
2022-09-04T18:14:31.875Z,64.88
2022-09-04T18:17:49.195Z,65.34
2022-09-04T18:20:57.459Z,65.94
2022-09-04T18:24:02.678Z,66.35
2022-09-04T18:27:18.839Z,66.36
2022-09-04T18:37:10.177Z,66.99
2022-09-04T18:37:26.563Z,67.17
2022-09-04T18:37:47.034Z,67.60
2022-09-04T18:44:39.098Z,67.46
2022-09-04T18:50:22.646Z,67.69
2022-09-04T18:50:36.087Z,67.31
2022-09-04T18:51:26.573Z,67.80
2022-09-04T18:54:41.836Z,67.60
2022-09-04T18:57:53.359Z,67.31
2022-09-04T19:01:01.288Z,68.65
2022-09-04T19:04:18.994Z,67.78
2022-09-04T19:07:32.630Z,68.07
2022-09-04T19:10:49.552Z,67.56
2022-09-04T19:14:09.868Z,68.21
2022-09-04T19:17:21.951Z,67.75
2022-09-04T19:20:31.192Z,67.57
2022-09-04T19:23:42.283Z,67.43
2022-09-04T19:26:54.989Z,67.38
2022-09-04T19:30:18.339Z,67.56
2022-09-04T19:33:44.704Z,68.04
2022-09-04T19:38:23.966Z,68.19
2022-09-04T19:46:03.406Z,69.57
2022-09-04T19:46:13.658Z,69.90
2022-09-04T19:47:37.214Z,70.01
2022-09-04T19:53:22.539Z,69.52
2022-09-04T19:54:10.623Z,70.41
2022-09-04T19:57:32.885Z,69.95
2022-09-04T20:00:49.034Z,70.50
2022-09-04T20:04:02.426Z,71.10
2022-09-04T20:07:17.132Z,71.45
2022-09-04T20:10:24.043Z,71.89
2022-09-04T20:13:37.764Z,71.76
2022-09-04T20:16:52.552Z,72.14
2022-09-04T20:20:01.538Z,72.24
2022-09-04T20:23:51.421Z,73.21
2022-09-04T20:27:10.262Z,73.23
2022-09-04T20:30:22.168Z,73.62
2022-09-04T20:33:27.026Z,74.72
2022-09-04T20:36:36.678Z,75.00
2022-09-04T20:39:43.965Z,74.96
2022-09-04T20:43:02.285Z,75.26
2022-09-04T20:50:12.387Z,75.62
2022-09-04T20:52:52.984Z,75.74
2022-09-04T20:53:22.882Z,76.16
2022-09-04T21:01:44.475Z,76.07
2022-09-04T21:03:13.349Z,76.53
2022-09-04T21:03:57.095Z,76.43
2022-09-04T21:07:18.335Z,77.06
2022-09-04T21:10:31.850Z,77.49
2022-09-04T21:13:59.112Z,78.07
2022-09-04T21:17:35.269Z,78.16
2022-09-04T21:21:00.217Z,77.94
2022-09-04T21:24:21.162Z,77.63
2022-09-04T21:27:50.094Z,77.84
2022-09-04T21:31:08.846Z,78.26
2022-09-04T21:34:49.752Z,78.58
2022-09-04T21:38:03.109Z,78.89
2022-09-04T21:41:17.208Z,79.46
2022-09-04T21:44:34.944Z,80.05
2022-09-04T21:47:51.222Z,80.64
2022-09-04T21:51:02.305Z,80.86
2022-09-04T21:54:16.649Z,81.37
2022-09-04T22:02:30.298Z,82.26
2022-09-04T22:02:38.450Z,83.18
2022-09-04T22:05:02.520Z,83.37
2022-09-04T22:13:26.574Z,83.78
2022-09-04T22:13:37.503Z,84.32
2022-09-04T22:15:42.355Z,84.31
2022-09-04T22:19:06.942Z,84.94
2022-09-04T22:22:40.426Z,85.07
2022-09-04T22:26:09.951Z,85.02
2022-09-04T22:29:50.261Z,85.18
2022-09-04T22:33:13.937Z,84.90
2022-09-04T22:36:41.431Z,85.86
2022-09-04T22:40:02.973Z,86.37
2022-09-04T22:43:21.371Z,86.36
2022-09-04T22:46:45.271Z,86.53
2022-09-04T22:50:34.317Z,86.56
2022-09-04T22:54:24.717Z,86.46
2022-09-04T22:58:02.186Z,85.97
2022-09-04T23:01:16.599Z,85.45
2022-09-04T23:04:24.616Z,85.06
2022-09-04T23:13:44.224Z,85.30
2022-09-04T23:13:51.397Z,85.85
2022-09-04T23:15:08.648Z,85.70
2022-09-04T23:19:52.234Z,86.10
2022-09-04T23:26:49.026Z,86.33
2022-09-04T23:27:00.702Z,86.79
2022-09-04T23:30:26.568Z,87.03
2022-09-04T23:33:38.508Z,87.08
2022-09-04T23:37:06.382Z,86.83
2022-09-04T23:40:42.832Z,87.44
2022-09-04T23:44:11.474Z,87.36
2022-09-04T23:47:47.842Z,87.45
2022-09-04T23:50:59.512Z,87.72
2022-09-04T23:54:56.169Z,88.92
2022-09-04T23:58:47.131Z,89.50
